createdAt,value
2022-10-01T00:01:08.246Z,5.15
2022-10-01T00:03:35.832Z,5.45
2022-10-01T00:06:05.119Z,5.45
2022-10-01T00:08:32.549Z,5.88
2022-10-01T00:11:02.238Z,5.47
2022-10-01T00:13:30.319Z,5.05
2022-10-01T00:15:57.307Z,5.32
2022-10-01T00:18:24.860Z,5.03
2022-10-01T00:20:51.403Z,6.03
2022-10-01T00:23:19.717Z,5.80
2022-10-01T00:25:46.271Z,6.00
2022-10-01T00:28:12.868Z,6.88
2022-10-01T00:30:46.283Z,6.82
2022-10-01T00:33:12.838Z,7.07
2022-10-01T00:35:39.350Z,7.60
2022-10-01T00:38:05.889Z,7.78
2022-10-01T00:40:32.408Z,7.88
2022-10-01T00:43:00.073Z,6.93
2022-10-01T00:45:26.637Z,8.02
2022-10-01T00:47:58.019Z,8.00
2022-10-01T00:50:32.623Z,7.65
2022-10-01T00:53:01.657Z,7.28
2022-10-01T00:55:34.531Z,8.98
2022-10-01T00:58:01.074Z,8.13
2022-10-01T01:00:27.590Z,8.27
2022-10-01T01:02:54.871Z,9.40
2022-10-01T01:05:21.883Z,8.70
2022-10-01T01:07:50.525Z,9.13
2022-10-01T01:10:39.580Z,9.05
2022-10-01T01:13:17.987Z,9.23
2022-10-01T01:15:57.319Z,10.05
2022-10-01T01:18:27.551Z,9.68
2022-10-01T01:21:33.131Z,9.88
2022-10-01T01:24:21.523Z,9.55
2022-10-01T01:26:58.016Z,9.98
2022-10-01T01:29:52.981Z,10.32
2022-10-01T01:32:52.784Z,9.60
2022-10-01T01:35:42.011Z,8.98
2022-10-01T01:38:11.562Z,8.75
2022-10-01T01:40:39.222Z,9.18
2022-10-01T01:43:09.190Z,8.50
2022-10-01T01:45:38.266Z,8.85
2022-10-01T01:48:06.418Z,8.43
2022-10-01T01:50:40.422Z,8.23
2022-10-01T01:53:06.917Z,8.20
2022-10-01T01:55:34.403Z,7.30
2022-10-01T01:58:01.325Z,9.07
2022-10-01T02:00:28.439Z,8.65
2022-10-01T02:02:57.097Z,9.60
2022-10-01T02:05:27.445Z,9.70
2022-10-01T02:07:53.905Z,9.80
2022-10-01T02:10:48.874Z,10.60
2022-10-01T02:13:25.106Z,11.10
2022-10-01T02:16:10.404Z,12.35
2022-10-01T02:19:02.688Z,11.55
2022-10-01T02:21:39.861Z,10.85
2022-10-01T02:24:32.900Z,10.48
2022-10-01T02:27:04.264Z,9.80
2022-10-01T02:29:31.076Z,8.93
2022-10-01T02:31:57.631Z,9.95
2022-10-01T02:34:27.137Z,10.00
2022-10-01T02:36:55.173Z,9.82
2022-10-01T02:39:22.618Z,10.75
2022-10-01T02:41:50.319Z,9.35
2022-10-01T02:44:22.806Z,9.52
2022-10-01T02:47:00.706Z,10.10
2022-10-01T02:49:30.729Z,10.02
2022-10-01T02:52:13.154Z,10.37
2022-10-01T02:54:48.653Z,9.73
2022-10-01T02:57:27.157Z,9.95
2022-10-01T02:59:59.740Z,10.48
2022-10-01T03:02:28.008Z,9.50
2022-10-01T03:04:56.759Z,10.82
2022-10-01T03:07:24.667Z,11.23
2022-10-01T03:09:51.279Z,9.68
2022-10-01T03:12:18.195Z,10.25
2022-10-01T03:14:47.519Z,9.38
2022-10-01T03:17:14.857Z,10.88
2022-10-01T03:19:41.700Z,10.30
2022-10-01T03:22:09.476Z,11.00
2022-10-01T03:24:36.057Z,11.52
2022-10-01T03:27:02.541Z,13.02
2022-10-01T03:29:29.057Z,13.38
2022-10-01T03:31:55.809Z,14.02
2022-10-01T03:34:22.820Z,14.68
2022-10-01T03:36:49.972Z,14.27
2022-10-01T03:39:16.610Z,13.15
2022-10-01T03:41:43.196Z,13.27
2022-10-01T03:44:09.679Z,12.30
2022-10-01T03:46:36.597Z,11.82
2022-10-01T03:49:03.518Z,11.65
2022-10-01T03:51:30.866Z,10.43
2022-10-01T03:53:58.508Z,10.80
2022-10-01T03:56:25.261Z,10.25
2022-10-01T03:58:51.761Z,9.90
2022-10-01T04:01:18.401Z,10.07
2022-10-01T04:03:44.981Z,9.20
2022-10-01T04:06:11.697Z,9.40
2022-10-01T04:08:38.868Z,8.82
2022-10-01T04:11:06.290Z,7.70
2022-10-01T04:13:33.438Z,7.72
2022-10-01T04:16:00.762Z,7.60
2022-10-01T04:18:27.294Z,7.55
2022-10-01T04:20:53.801Z,7.15
2022-10-01T04:23:20.348Z,6.82
2022-10-01T04:25:46.832Z,6.88
2022-10-01T04:28:13.640Z,6.38
2022-10-01T04:30:42.059Z,6.47
2022-10-01T04:33:12.302Z,5.85
2022-10-01T04:35:39.371Z,5.77
2022-10-01T04:38:07.674Z,5.20
2022-10-01T04:40:36.227Z,5.20
2022-10-01T04:43:04.086Z,4.50
2022-10-01T04:45:30.641Z,5.35
2022-10-01T04:47:57.329Z,5.25
2022-10-01T04:50:24.830Z,5.10
2022-10-01T04:52:52.069Z,5.10
2022-10-01T04:55:20.089Z,5.13
2022-10-01T04:57:46.707Z,4.72
2022-10-01T05:00:15.902Z,4.18
2022-10-01T05:02:49.356Z,3.30
2022-10-01T05:05:16.723Z,3.28
2022-10-01T05:07:43.435Z,2.60
2022-10-01T05:10:15.857Z,1.75
2022-10-01T05:12:42.508Z,1.10
2022-10-01T05:15:09.515Z,1.00
2022-10-01T05:17:36.436Z,1.30
2022-10-01T05:20:04.799Z,0.93
2022-10-01T05:22:32.040Z,1.20
2022-10-01T05:25:00.077Z,1.00
2022-10-01T05:27:27.374Z,0.75
2022-10-01T05:29:53.920Z,0.75
2022-10-01T05:32:20.442Z,0.90
2022-10-01T05:34:51.189Z,1.10
2022-10-01T05:37:19.956Z,0.77
2022-10-01T05:39:46.559Z,0.77
2022-10-01T05:42:13.239Z,0.98
2022-10-01T05:44:45.877Z,0.77
2022-10-01T05:47:13.869Z,0.70
2022-10-01T05:49:44.354Z,1.05
2022-10-01T05:52:11.491Z,0.88
2022-10-01T05:54:38.270Z,1.00
2022-10-01T05:57:05.552Z,0.80
2022-10-01T05:59:32.297Z,0.80
2022-10-01T06:01:59.081Z,0.85
2022-10-01T06:04:25.941Z,0.70
2022-10-01T06:06:56.139Z,1.00
2022-10-01T06:09:22.804Z,1.10
2022-10-01T06:11:49.522Z,0.95
2022-10-01T06:14:16.496Z,0.90
2022-10-01T06:16:43.206Z,0.70
2022-10-01T06:19:09.892Z,1.02
2022-10-01T06:21:36.794Z,0.90
2022-10-01T06:24:03.703Z,0.98
2022-10-01T06:26:30.271Z,1.10
2022-10-01T06:28:56.874Z,0.82
2022-10-01T06:31:23.504Z,0.70
2022-10-01T06:33:50.204Z,0.80
2022-10-01T06:36:16.749Z,0.98
2022-10-01T06:38:43.344Z,1.08
2022-10-01T06:41:09.898Z,0.90
2022-10-01T06:43:36.443Z,0.90
2022-10-01T06:46:04.960Z,0.98
2022-10-01T06:48:32.388Z,0.90
2022-10-01T06:50:59.520Z,1.00
2022-10-01T06:53:27.862Z,0.80
2022-10-01T06:55:54.954Z,0.90
2022-10-01T06:58:23.398Z,1.00
2022-10-01T07:00:50.229Z,1.05
2022-10-01T07:03:21.763Z,1.08
2022-10-01T07:05:49.398Z,0.80
2022-10-01T07:08:16.191Z,1.00
2022-10-01T07:10:44.155Z,1.00
2022-10-01T07:13:20.801Z,1.10
2022-10-01T07:15:47.460Z,1.00
2022-10-01T07:18:14.233Z,1.30
2022-10-01T07:20:41.089Z,1.00
2022-10-01T07:23:10.693Z,1.10
2022-10-01T07:25:38.784Z,1.05
2022-10-01T07:28:08.646Z,1.20
2022-10-01T07:30:35.270Z,1.20
2022-10-01T07:33:01.832Z,1.30
2022-10-01T07:35:29.537Z,1.27
2022-10-01T07:37:56.091Z,1.10
2022-10-01T07:40:22.803Z,1.50
2022-10-01T07:42:54.487Z,1.23
2022-10-01T07:45:24.324Z,1.38
2022-10-01T07:47:54.489Z,1.15
2022-10-01T07:50:21.154Z,1.23
2022-10-01T07:52:52.709Z,1.17
2022-10-01T07:55:20.437Z,1.70
2022-10-01T07:58:05.018Z,1.20
2022-10-01T08:00:33.232Z,1.30
2022-10-01T08:02:59.819Z,1.55
2022-10-01T08:05:29.017Z,1.50
2022-10-01T08:08:04.654Z,1.40
2022-10-01T08:10:34.739Z,1.60
2022-10-01T08:13:08.209Z,1.60
2022-10-01T08:15:35.334Z,1.77
2022-10-01T08:18:03.143Z,2.03
2022-10-01T08:20:30.037Z,1.48
2022-10-01T08:23:04.200Z,1.60
2022-10-01T08:25:31.006Z,1.55
2022-10-01T08:27:57.681Z,1.40
2022-10-01T08:30:25.360Z,1.48
2022-10-01T08:32:55.940Z,1.88
2022-10-01T08:35:23.566Z,1.52
2022-10-01T08:37:50.385Z,1.83
2022-10-01T08:40:19.434Z,1.40
2022-10-01T08:42:57.230Z,1.90
2022-10-01T08:45:27.491Z,1.45
2022-10-01T08:48:09.125Z,1.50
2022-10-01T08:50:57.455Z,1.30
2022-10-01T08:53:37.962Z,1.92
2022-10-01T08:56:08.663Z,1.70
2022-10-01T08:58:45.202Z,1.52
2022-10-01T09:01:13.389Z,1.40
2022-10-01T09:03:40.263Z,1.83
2022-10-01T09:06:22.083Z,1.70
2022-10-01T09:09:00.729Z,1.98
2022-10-01T09:11:52.525Z,2.47
2022-10-01T09:14:44.644Z,2.63
2022-10-01T09:17:17.360Z,2.47
2022-10-01T09:20:19.406Z,3.00
2022-10-01T09:22:57.920Z,3.00
2022-10-01T09:25:27.638Z,3.05
2022-10-01T09:28:02.696Z,4.30
2022-10-01T09:30:30.113Z,3.47
2022-10-01T09:33:12.757Z,3.95
2022-10-01T09:35:45.230Z,3.97
2022-10-01T09:38:18.972Z,3.28
2022-10-01T09:40:52.885Z,3.13
2022-10-01T09:43:21.918Z,3.10
2022-10-01T09:45:49.518Z,3.13
2022-10-01T09:48:34.295Z,3.10
2022-10-01T09:51:14.670Z,4.00
2022-10-01T09:53:57.729Z,3.50
2022-10-01T09:56:48.153Z,4.95
2022-10-01T09:59:22.686Z,3.90
2022-10-01T10:01:53.055Z,4.72
2022-10-01T10:04:21.292Z,3.30
2022-10-01T10:06:47.851Z,3.65
2022-10-01T10:09:22.459Z,4.25
2022-10-01T10:11:49.135Z,3.58
2022-10-01T10:14:25.361Z,3.97
2022-10-01T10:16:51.872Z,3.35
2022-10-01T10:19:28.135Z,3.72
2022-10-01T10:21:57.448Z,3.78
2022-10-01T10:24:26.354Z,3.53
2022-10-01T10:26:55.221Z,4.78
2022-10-01T10:29:30.976Z,5.28
2022-10-01T10:31:58.811Z,4.63
2022-10-01T10:34:38.328Z,4.53
2022-10-01T10:37:07.123Z,4.82
2022-10-01T10:39:36.994Z,4.78
2022-10-01T10:42:05.592Z,4.78
2022-10-01T10:44:39.478Z,4.95
2022-10-01T10:47:14.754Z,5.45
2022-10-01T10:49:46.101Z,4.55
2022-10-01T10:54:48.188Z,5.40
2022-10-01T10:57:21.220Z,4.75
2022-10-01T10:59:58.530Z,4.50
2022-10-01T11:02:26.722Z,4.63
2022-10-01T11:04:54.404Z,4.40
2022-10-01T11:07:23.388Z,4.68
2022-10-01T11:10:06.266Z,4.00
2022-10-01T11:12:57.223Z,4.10
2022-10-01T11:16:04.300Z,4.28
2022-10-01T11:18:42.849Z,4.60
2022-10-01T11:21:22.518Z,5.22
2022-10-01T11:24:16.688Z,4.65
2022-10-01T11:27:10.324Z,4.82
2022-10-01T11:29:45.597Z,4.28
2022-10-01T11:32:41.626Z,4.05
2022-10-01T11:35:11.466Z,3.53
2022-10-01T11:38:07.048Z,3.63
2022-10-01T11:41:04.414Z,3.00
2022-10-01T11:43:34.426Z,3.15
2022-10-01T11:46:06.498Z,3.00
2022-10-01T11:48:47.237Z,3.55
2022-10-01T11:51:17.442Z,3.47
2022-10-01T11:54:06.801Z,2.75
2022-10-01T11:56:56.222Z,3.13
2022-10-01T11:59:39.557Z,2.25
2022-10-01T12:02:20.443Z,2.80
2022-10-01T12:04:57.228Z,3.13
2022-10-01T12:07:47.398Z,3.00
2022-10-01T12:10:29.269Z,2.55
2022-10-01T12:13:13.221Z,2.50
2022-10-01T12:16:04.982Z,2.33
2022-10-01T12:18:58.154Z,2.80
2022-10-01T12:21:38.377Z,3.20
2022-10-01T12:24:11.951Z,3.25
2022-10-01T12:26:55.178Z,3.42
2022-10-01T12:29:35.996Z,4.20
2022-10-01T12:32:09.876Z,3.63
2022-10-01T12:34:50.523Z,2.67
2022-10-01T12:37:33.129Z,2.85
2022-10-01T12:40:18.248Z,2.95
2022-10-01T12:43:01.970Z,3.47
2022-10-01T12:45:53.508Z,3.92
2022-10-01T12:48:32.001Z,3.80
2022-10-01T12:51:53.141Z,3.55
2022-10-01T12:54:36.895Z,4.18
2022-10-01T12:57:19.687Z,5.05
2022-10-01T12:59:59.074Z,4.95
2022-10-01T13:02:39.273Z,4.30
2022-10-01T13:05:27.702Z,4.43
2022-10-01T13:08:06.367Z,3.78
2022-10-01T13:10:47.583Z,3.80
2022-10-01T13:13:17.977Z,3.47
2022-10-01T13:15:49.456Z,3.60
2022-10-01T13:18:47.735Z,3.13
2022-10-01T13:21:38.739Z,3.75
2022-10-01T13:24:10.915Z,4.30
2022-10-01T13:26:53.765Z,3.63
2022-10-01T13:29:59.964Z,3.38
2022-10-01T13:32:33.364Z,3.45
2022-10-01T13:35:21.726Z,3.20
2022-10-01T13:37:48.245Z,3.80
2022-10-01T13:40:24.074Z,3.78
2022-10-01T13:42:51.812Z,3.15
2022-10-01T13:45:30.638Z,3.55
2022-10-01T13:48:26.736Z,3.75
2022-10-01T13:51:09.167Z,3.90
2022-10-01T13:53:49.897Z,3.55
2022-10-01T13:56:37.597Z,3.80
2022-10-01T13:59:25.141Z,4.63
2022-10-01T14:01:51.931Z,4.20
2022-10-01T14:04:50.746Z,3.88
2022-10-01T14:07:27.874Z,5.00
2022-10-01T14:09:57.764Z,3.70
2022-10-01T14:12:48.259Z,4.18
2022-10-01T14:15:36.269Z,4.00
2022-10-01T14:18:39.479Z,3.90
2022-10-01T14:21:25.758Z,3.90
2022-10-01T14:24:20.448Z,4.03
2022-10-01T14:26:53.204Z,4.10
2022-10-01T14:29:33.698Z,4.63
2022-10-01T14:32:21.685Z,4.18
2022-10-01T14:35:03.304Z,4.03
2022-10-01T14:37:30.252Z,3.47
2022-10-01T14:40:19.900Z,3.67
2022-10-01T14:43:16.128Z,3.03
2022-10-01T14:46:03.266Z,3.35
2022-10-01T14:48:34.520Z,2.85
2022-10-01T14:51:06.713Z,2.53
2022-10-01T14:53:37.402Z,2.88
2022-10-01T14:56:09.375Z,2.33
2022-10-01T14:58:39.046Z,2.95
2022-10-01T15:01:06.437Z,3.08
2022-10-01T15:03:40.440Z,2.20
2022-10-01T15:06:13.992Z,3.35
2022-10-01T15:08:45.670Z,2.55
2022-10-01T15:11:15.534Z,2.58
2022-10-01T15:13:44.915Z,2.25
2022-10-01T15:16:19.102Z,3.38
2022-10-01T15:18:49.050Z,2.58
2022-10-01T15:21:21.222Z,2.10
2022-10-01T15:23:48.183Z,2.38
2022-10-01T15:26:20.132Z,2.42
2022-10-01T15:28:46.589Z,2.58
2022-10-01T15:31:13.477Z,2.05
2022-10-01T15:33:40.976Z,2.75
2022-10-01T15:36:12.270Z,2.53
2022-10-01T15:38:39.716Z,2.47
2022-10-01T15:41:29.854Z,1.92
2022-10-01T15:43:54.205Z,1.90
2022-10-01T15:46:33.292Z,2.55
2022-10-01T15:49:21.472Z,2.03
2022-10-01T15:52:11.438Z,2.00
2022-10-01T15:54:40.192Z,2.05
2022-10-01T15:57:07.230Z,2.63
2022-10-01T15:59:34.822Z,2.00
2022-10-01T16:02:01.393Z,2.15
2022-10-01T16:04:28.030Z,2.33
2022-10-01T16:06:54.572Z,2.40
2022-10-01T16:09:27.523Z,1.95
2022-10-01T16:12:05.376Z,2.08
2022-10-01T16:14:43.709Z,2.38
2022-10-01T16:17:19.603Z,1.80
2022-10-01T16:19:57.535Z,1.70
2022-10-01T16:22:31.794Z,2.47
2022-10-01T16:25:22.760Z,2.80
2022-10-01T16:27:53.165Z,2.33
2022-10-01T16:30:26.926Z,2.25
2022-10-01T16:32:54.431Z,2.72
2022-10-01T16:35:22.104Z,2.53
2022-10-01T16:37:50.192Z,2.20
2022-10-01T16:40:18.023Z,2.67
2022-10-01T16:42:45.843Z,1.95
2022-10-01T16:45:17.837Z,2.28
2022-10-01T16:47:45.375Z,2.00
2022-10-01T16:50:14.529Z,2.42
2022-10-01T16:52:41.015Z,2.03
2022-10-01T16:55:20.234Z,1.92
2022-10-01T16:57:46.862Z,1.95
2022-10-01T17:00:15.195Z,2.13
2022-10-01T17:02:42.132Z,2.47
2022-10-01T17:05:20.325Z,1.80
2022-10-01T17:07:46.820Z,1.90
2022-10-01T17:10:13.563Z,2.10
2022-10-01T17:12:43.405Z,2.08
2022-10-01T17:15:15.544Z,1.63
2022-10-01T17:17:42.025Z,1.48
2022-10-01T17:20:09.137Z,2.17
2022-10-01T17:22:35.744Z,1.75
2022-10-01T17:25:03.624Z,1.80
2022-10-01T17:27:30.119Z,2.40
2022-10-01T17:29:57.125Z,1.83
2022-10-01T17:32:23.650Z,1.95
2022-10-01T17:34:53.512Z,1.88
2022-10-01T17:37:21.633Z,2.03
2022-10-01T17:39:48.141Z,2.15
2022-10-01T17:42:16.581Z,2.25
2022-10-01T17:44:43.059Z,1.83
2022-10-01T17:47:09.625Z,1.92
2022-10-01T17:49:36.131Z,1.70
2022-10-01T17:52:02.650Z,2.03
2022-10-01T17:54:29.171Z,2.05
2022-10-01T17:56:55.768Z,2.30
2022-10-01T17:59:22.343Z,2.38
2022-10-01T18:01:48.930Z,2.08
2022-10-01T18:04:15.569Z,2.30
2022-10-01T18:06:43.617Z,2.25
2022-10-01T18:09:10.178Z,2.40
2022-10-01T18:11:36.692Z,1.75
2022-10-01T18:14:04.483Z,2.20
2022-10-01T18:16:32.051Z,2.95
2022-10-01T18:21:46.926Z,3.05
2022-10-01T18:24:14.672Z,3.00
2022-10-01T18:26:41.291Z,3.58
2022-10-01T18:29:07.940Z,3.10
2022-10-01T18:31:40.629Z,4.07
2022-10-01T18:34:39.953Z,3.35
2022-10-01T18:37:15.554Z,4.40
2022-10-01T18:39:47.972Z,4.05
2022-10-01T18:42:25.166Z,3.63
2022-10-01T18:44:59.979Z,3.58
2022-10-01T18:47:40.807Z,3.67
2022-10-01T18:50:24.873Z,4.15
2022-10-01T18:53:03.957Z,4.15
2022-10-01T18:55:48.982Z,5.25
2022-10-01T18:58:28.629Z,4.05
2022-10-01T19:01:03.352Z,3.95
2022-10-01T19:03:41.973Z,3.55
2022-10-01T19:06:35.214Z,3.40
2022-10-01T19:09:28.676Z,2.50
2022-10-01T19:12:15.242Z,3.67
2022-10-01T19:15:00.518Z,3.50
2022-10-01T19:17:41.321Z,3.70
2022-10-01T19:20:15.228Z,3.28
2022-10-01T19:23:03.286Z,3.65
2022-10-01T19:25:48.729Z,3.25
2022-10-01T19:28:30.468Z,3.58
2022-10-01T19:31:18.409Z,3.28
2022-10-01T19:33:51.978Z,3.85
2022-10-01T19:36:34.398Z,3.90
2022-10-01T19:39:04.918Z,3.45
2022-10-01T19:41:53.598Z,2.47
2022-10-01T19:44:32.759Z,3.20
2022-10-01T19:47:34.480Z,3.45
2022-10-01T19:52:38.219Z,2.95
2022-10-01T19:55:13.382Z,2.80
2022-10-01T19:57:42.465Z,2.70
2022-10-01T20:00:19.271Z,3.25
2022-10-01T20:03:10.161Z,3.80
2022-10-01T20:05:57.261Z,2.65
2022-10-01T20:08:45.712Z,3.72
2022-10-01T20:11:27.901Z,3.40
2022-10-01T20:14:50.733Z,3.53
2022-10-01T20:18:02.553Z,4.15
2022-10-01T20:20:32.152Z,2.70
2022-10-01T20:23:34.466Z,4.07
2022-10-01T20:26:17.931Z,3.65
2022-10-01T20:29:29.580Z,3.13
2022-10-01T20:32:25.887Z,3.55
2022-10-01T20:35:23.134Z,3.30
2022-10-01T20:38:02.111Z,3.58
2022-10-01T20:40:40.718Z,4.18
2022-10-01T20:43:14.480Z,3.92
2022-10-01T20:45:41.438Z,3.15
2022-10-01T20:48:19.284Z,3.20
2022-10-01T20:50:51.808Z,3.25
2022-10-01T20:53:38.721Z,3.60
2022-10-01T20:56:11.429Z,3.03
2022-10-01T20:58:46.536Z,2.97
2022-10-01T21:01:25.190Z,3.20
2022-10-01T21:04:09.190Z,4.15
2022-10-01T21:06:39.926Z,4.03
2022-10-01T21:09:27.985Z,3.90
2022-10-01T21:12:02.308Z,3.58
2022-10-01T21:14:38.851Z,4.25
2022-10-01T21:17:20.299Z,4.18
2022-10-01T21:20:06.521Z,3.63
2022-10-01T21:22:46.052Z,3.90
2022-10-01T21:25:31.848Z,3.53
2022-10-01T21:28:13.333Z,3.58
2022-10-01T21:31:01.887Z,3.88
2022-10-01T21:33:31.053Z,3.70
2022-10-01T21:36:23.005Z,4.57
2022-10-01T21:38:55.497Z,3.65
2022-10-01T21:41:29.953Z,3.78
2022-10-01T21:44:22.534Z,3.35
2022-10-01T21:47:05.591Z,3.63
2022-10-01T21:49:37.943Z,4.78
2022-10-01T21:52:19.460Z,3.30
2022-10-01T21:57:37.642Z,3.45
2022-10-01T22:00:24.347Z,3.85
2022-10-01T22:02:57.652Z,3.95
2022-10-01T22:05:41.289Z,3.72
2022-10-01T22:08:15.392Z,3.80
2022-10-01T22:10:53.312Z,3.70
2022-10-01T22:13:27.259Z,3.78
2022-10-01T22:15:57.040Z,3.78
2022-10-01T22:18:37.859Z,4.10
2022-10-01T22:21:08.415Z,3.72
2022-10-01T22:23:37.515Z,4.32
2022-10-01T22:26:10.997Z,3.67
2022-10-01T22:28:39.366Z,3.38
2022-10-01T22:31:11.849Z,3.85
2022-10-01T22:33:42.022Z,3.70
2022-10-01T22:36:14.916Z,4.07
2022-10-01T22:38:54.119Z,4.28
2022-10-01T22:41:37.279Z,3.42
2022-10-01T22:44:13.495Z,3.85
2022-10-01T22:46:49.170Z,3.15
2022-10-01T22:49:34.235Z,3.60
2022-10-01T22:52:20.825Z,4.18
2022-10-01T22:55:04.367Z,3.85
2022-10-01T22:58:09.277Z,3.40
2022-10-01T23:01:08.923Z,3.75
2022-10-01T23:04:06.617Z,4.32
2022-10-01T23:06:44.769Z,4.45
2022-10-01T23:09:18.814Z,4.50
2022-10-01T23:12:04.385Z,3.90
2022-10-01T23:14:39.323Z,4.18
2022-10-01T23:17:26.792Z,4.13
2022-10-01T23:20:17.818Z,3.92
2022-10-01T23:23:07.553Z,3.95
2022-10-01T23:26:09.901Z,3.90
2022-10-01T23:29:16.655Z,4.10
2022-10-01T23:31:56.443Z,4.35
2022-10-01T23:34:31.435Z,4.45
2022-10-01T23:37:34.822Z,4.03
2022-10-01T23:40:04.546Z,3.55
2022-10-01T23:43:01.642Z,4.18
2022-10-01T23:45:33.151Z,3.45
2022-10-01T23:48:21.188Z,3.63
2022-10-01T23:51:02.006Z,5.00
2022-10-01T23:53:38.032Z,4.43
2022-10-01T23:56:28.877Z,3.90
2022-10-01T23:59:08.484Z,4.03
